Terminal Aerodrome Forecast
Issued by NWS Northern Indiana

Home | Current Version | Previous Version | Graphics & Text | Print | Product List | Glossary On
Versions: 1 2 3 4 5 6 7 8 9 10 11 12 13 14 15 16 17
000
FTUS43 KIWX 132300
TAFFWA
TAF
KFWA 132340Z 1400/1424 21016G26KT P6SM BKN050
     FM140700 20017G25KT 5SM SHRA VCTS BKN025CB
     FM140900 20018G28KT 3SM SHRA VCTS OVC015CB
     FM141500 27018G28KT 4SM -SHRA BR OVC010
     FM141800 30018G28KT P6SM VCSH OVC015=

USA.gov is the U.S. government's official web portal to all federal, state and local government web resources and services.